Terminal Aerodrome Forecast
Issued by NWS

Home | Current Version | Previous Version | Text Only | Print | Product List | Glossary On
Versions: 1 2 3 4 5 6 7 8 9 10 11 12 13 14 15 16 17 18 19 20 21 22 23 24 25
000
FTUS42 KTBW 271100
TAFPIE
TAF
KPIE 271120Z 2712/2812 03010KT P6SM OVC020
     FM271700 02010KT P6SM SCT015 BKN050
     FM280300 04012KT P6SM BKN015=

USA.gov is the U.S. government's official web portal to all federal, state and local government web resources and services.